CES219 ZSPD-EDDF
Flight info
| Callsign | CES219 |
|---|---|
| Flight time | N/A |
| Altitude | 30100 |
| Route | ODU83D ODULO B221 XDX W174 TAO W103 JDW V89 DOVIV W55 PAMRU W34 LADIX B339 POLHO/K0913S0980 Y520 SERNA/K0904F320 A822 LONKA R497 KUMOD/K0893F340 N869 LITUN T580 POBEM/K0895F360 N869 DURTI/K0882F380 L29 LAFAT/N0475F380 DCT SUWGI L735 OLBIK DCT VELIS T843 ARNIX DCT KERAX KERAX5A |
| Aircraft | B77W/H-SDE1E2E3FGHIJ2J3J4J5M1RWXY/LB1D1 |
Departure
| Time | 2026-05-05 15:59 |
|---|---|
| Airport | Shanghai Pudong International Airport (ZSPD) |
Arrival
| Time | N/A |
|---|---|
| Airport | Frankfurt Main Airport (EDDF) |
| Time | Latitude | Longitude | Altitude | Speed | Heading |
|---|---|---|---|---|---|
| 2026-05-05 15:23 | 31.13324 | 121.80325 | 28 ft | 0 kts | 72° |
| 2026-05-05 15:46 | 31.13323 | 121.80324 | 27 ft | 1 kts | 72° |
| 2026-05-05 15:46 | 31.13316 | 121.80297 | 27 ft | 4 kts | 72° |
| 2026-05-05 15:47 | 31.13308 | 121.80268 | 27 ft | 2 kts | 72° |
| 2026-05-05 15:47 | 31.13303 | 121.80253 | 26 ft | 4 kts | 61° |
| 2026-05-05 15:47 | 31.13279 | 121.80231 | 26 ft | 4 kts | 354° |
| 2026-05-05 15:47 | 31.13255 | 121.80238 | 26 ft | 4 kts | 342° |
| 2026-05-05 15:48 | 31.13246 | 121.80241 | 27 ft | 0 kts | 342° |
| 2026-05-05 15:50 | 31.13274 | 121.80231 | 27 ft | 10 kts | 342° |
| 2026-05-05 15:50 | 31.13346 | 121.80203 | 27 ft | 11 kts | 342° |
| 2026-05-05 15:50 | 31.13419 | 121.80175 | 27 ft | 11 kts | 342° |
| 2026-05-05 15:51 | 31.13492 | 121.80145 | 27 ft | 11 kts | 330° |
| 2026-05-05 15:51 | 31.13510 | 121.80061 | 27 ft | 11 kts | 256° |
| 2026-05-05 15:51 | 31.13477 | 121.79978 | 27 ft | 9 kts | 246° |
| 2026-05-05 15:51 | 31.13508 | 121.79920 | 27 ft | 9 kts | 327° |
| 2026-05-05 15:52 | 31.13565 | 121.79894 | 27 ft | 9 kts | 342° |
| 2026-05-05 15:52 | 31.13630 | 121.79869 | 27 ft | 11 kts | 342° |
| 2026-05-05 15:52 | 31.13721 | 121.79835 | 28 ft | 16 kts | 342° |
| 2026-05-05 15:52 | 31.13847 | 121.79787 | 28 ft | 22 kts | 342° |
| 2026-05-05 15:53 | 31.14007 | 121.79727 | 28 ft | 26 kts | 342° |
| 2026-05-05 15:53 | 31.14175 | 121.79664 | 28 ft | 26 kts | 342° |
| 2026-05-05 15:53 | 31.14346 | 121.79599 | 27 ft | 26 kts | 342° |
| 2026-05-05 15:53 | 31.14516 | 121.79534 | 28 ft | 26 kts | 342° |
| 2026-05-05 15:54 | 31.14665 | 121.79479 | 28 ft | 22 kts | 342° |
| 2026-05-05 15:54 | 31.14805 | 121.79426 | 28 ft | 22 kts | 342° |
| 2026-05-05 15:54 | 31.14954 | 121.79370 | 28 ft | 22 kts | 342° |
| 2026-05-05 15:54 | 31.15099 | 121.79315 | 28 ft | 22 kts | 342° |
| 2026-05-05 15:55 | 31.15244 | 121.79260 | 28 ft | 22 kts | 342° |
| 2026-05-05 15:55 | 31.15389 | 121.79205 | 27 ft | 22 kts | 342° |
| 2026-05-05 15:55 | 31.15535 | 121.79150 | 27 ft | 22 kts | 342° |
| 2026-05-05 15:55 | 31.15653 | 121.79105 | 27 ft | 22 kts | 342° |
| 2026-05-05 15:56 | 31.15780 | 121.79057 | 27 ft | 22 kts | 342° |
| 2026-05-05 15:56 | 31.15924 | 121.79003 | 28 ft | 22 kts | 342° |
| 2026-05-05 15:56 | 31.16069 | 121.78948 | 28 ft | 22 kts | 342° |
| 2026-05-05 15:56 | 31.16168 | 121.78896 | 28 ft | 9 kts | 306° |
| 2026-05-05 15:57 | 31.16170 | 121.78822 | 28 ft | 9 kts | 253° |
| 2026-05-05 15:57 | 31.16147 | 121.78749 | 28 ft | 10 kts | 251° |
| 2026-05-05 15:57 | 31.16127 | 121.78675 | 28 ft | 10 kts | 252° |
| 2026-05-05 15:57 | 31.16091 | 121.78623 | 27 ft | 9 kts | 189° |
| 2026-05-05 15:58 | 31.16014 | 121.78642 | 27 ft | 20 kts | 162° |
| 2026-05-05 15:58 | 31.15695 | 121.78760 | 27 ft | 81 kts | 162° |
| 2026-05-05 15:58 | 31.14961 | 121.79038 | 28 ft | 139 kts | 162° |
| 2026-05-05 15:58 | 31.13886 | 121.79443 | 67 ft | 178 kts | 162° |
| 2026-05-05 15:59 | 31.12693 | 121.79880 | 463 ft | 183 kts | 163° |
| 2026-05-05 15:59 | 31.11512 | 121.80295 | 1128 ft | 170 kts | 165° |
| 2026-05-05 15:59 | 31.10397 | 121.80680 | 1775 ft | 168 kts | 167° |
| 2026-05-05 15:59 | 31.09223 | 121.81079 | 1941 ft | 187 kts | 166° |
| 2026-05-05 16:00 | 31.07887 | 121.81531 | 2076 ft | 212 kts | 166° |
| 2026-05-05 16:00 | 31.06393 | 121.82035 | 2309 ft | 233 kts | 166° |
| 2026-05-05 16:00 | 31.04792 | 121.82574 | 2780 ft | 243 kts | 165° |
| 2026-05-05 16:00 | 31.03154 | 121.83122 | 3438 ft | 247 kts | 165° |
| 2026-05-05 16:01 | 31.01486 | 121.83737 | 3942 ft | 254 kts | 154° |
| 2026-05-05 16:01 | 31.00175 | 121.85110 | 4471 ft | 262 kts | 120° |
| 2026-05-05 16:01 | 30.99649 | 121.87158 | 4998 ft | 271 kts | 92° |
| 2026-05-05 16:01 | 30.99934 | 121.89329 | 5619 ft | 275 kts | 68° |
| 2026-05-05 16:02 | 31.00971 | 121.91189 | 6253 ft | 277 kts | 43° |
| 2026-05-05 16:02 | 31.02585 | 121.92393 | 6837 ft | 279 kts | 15° |
| 2026-05-05 16:02 | 31.04496 | 121.92763 | 7274 ft | 282 kts | 5° |
| 2026-05-05 16:02 | 31.06433 | 121.92984 | 7793 ft | 286 kts | 5° |
| 2026-05-05 16:03 | 31.08424 | 121.93208 | 8401 ft | 289 kts | 5° |
| 2026-05-05 16:03 | 31.10434 | 121.93437 | 9011 ft | 291 kts | 5° |
| 2026-05-05 16:03 | 31.12454 | 121.93675 | 9636 ft | 293 kts | 5° |
| 2026-05-05 16:03 | 31.14493 | 121.93921 | 10195 ft | 297 kts | 5° |
| 2026-05-05 16:04 | 31.16603 | 121.94181 | 10435 ft | 314 kts | 5° |
| 2026-05-05 16:04 | 31.18850 | 121.94460 | 10589 ft | 335 kts | 5° |
| 2026-05-05 16:04 | 31.21238 | 121.94759 | 10773 ft | 355 kts | 5° |
| 2026-05-05 16:04 | 31.23735 | 121.95077 | 10961 ft | 374 kts | 5° |
| 2026-05-05 16:05 | 31.26368 | 121.95413 | 11434 ft | 385 kts | 4° |
| 2026-05-05 16:05 | 31.29052 | 121.95757 | 12106 ft | 390 kts | 4° |
| 2026-05-05 16:05 | 31.31764 | 121.96104 | 12913 ft | 393 kts | 4° |
| 2026-05-05 16:05 | 31.34484 | 121.96451 | 13769 ft | 396 kts | 4° |
| 2026-05-05 16:06 | 31.37248 | 121.96685 | 14438 ft | 399 kts | 356° |
| 2026-05-05 16:06 | 31.40015 | 121.96415 | 15162 ft | 399 kts | 349° |
| 2026-05-05 16:06 | 31.42726 | 121.95704 | 15933 ft | 399 kts | 341° |
| 2026-05-05 16:06 | 31.45373 | 121.94697 | 16672 ft | 401 kts | 339° |
| 2026-05-05 16:07 | 31.47998 | 121.93674 | 17401 ft | 404 kts | 339° |
| 2026-05-05 16:07 | 31.50713 | 121.92618 | 18111 ft | 408 kts | 340° |
| 2026-05-05 16:07 | 31.53381 | 121.91587 | 18762 ft | 411 kts | 340° |
| 2026-05-05 16:07 | 31.56103 | 121.90542 | 19391 ft | 413 kts | 340° |
| 2026-05-05 16:08 | 31.58848 | 121.89494 | 20016 ft | 416 kts | 340° |
| 2026-05-05 16:08 | 31.61619 | 121.88440 | 20631 ft | 419 kts | 340° |
| 2026-05-05 16:08 | 31.64405 | 121.87380 | 21236 ft | 423 kts | 340° |
| 2026-05-05 16:08 | 31.67219 | 121.86310 | 21832 ft | 426 kts | 340° |
| 2026-05-05 16:09 | 31.70056 | 121.85230 | 22423 ft | 429 kts | 340° |
| 2026-05-05 16:09 | 31.72906 | 121.84145 | 23015 ft | 432 kts | 340° |
| 2026-05-05 16:09 | 31.75779 | 121.83051 | 23590 ft | 435 kts | 340° |
| 2026-05-05 16:09 | 31.78667 | 121.81949 | 24061 ft | 438 kts | 340° |
| 2026-05-05 16:10 | 31.81581 | 121.80837 | 24542 ft | 441 kts | 340° |
| 2026-05-05 16:10 | 31.84464 | 121.79736 | 24985 ft | 443 kts | 341° |
| 2026-05-05 16:10 | 31.87441 | 121.78738 | 25499 ft | 445 kts | 346° |
| 2026-05-05 16:10 | 31.90496 | 121.78081 | 25992 ft | 447 kts | 352° |
| 2026-05-05 16:11 | 31.93608 | 121.77722 | 26435 ft | 450 kts | 353° |
| 2026-05-05 16:11 | 32.03015 | 121.76686 | 27810 ft | 455 kts | 354° |
| 2026-05-05 16:12 | 32.06182 | 121.76323 | 28196 ft | 458 kts | 354° |
| 2026-05-05 16:12 | 32.12556 | 121.75578 | 28926 ft | 463 kts | 354° |
| 2026-05-05 16:13 | 32.20394 | 121.74650 | 29760 ft | 468 kts | 354° |
| 2026-05-05 16:13 | 32.23496 | 121.74283 | 30042 ft | 470 kts | 354° |
| 2026-05-05 16:13 | 32.26768 | 121.73895 | 30079 ft | 474 kts | 354° |
| 2026-05-05 16:14 | 32.37227 | 121.72655 | 30041 ft | 466 kts | 354° |
| 2026-05-05 16:15 | 32.43000 | 121.71970 | 30169 ft | 464 kts | 354° |
| 2026-05-05 16:15 | 32.49443 | 121.71204 | 30137 ft | 465 kts | 354° |
| 2026-05-05 16:16 | 32.61263 | 121.69796 | 30140 ft | 467 kts | 354° |
| 2026-05-05 16:17 | 32.72075 | 121.68504 | 30130 ft | 467 kts | 354° |
| 2026-05-05 16:18 | 32.80685 | 121.67474 | 30122 ft | 467 kts | 354° |
| 2026-05-05 16:19 | 32.90372 | 121.66312 | 30120 ft | 466 kts | 354° |
| 2026-05-05 16:19 | 33.00040 | 121.65149 | 30116 ft | 465 kts | 354° |
| 2026-05-05 16:20 | 33.12869 | 121.63603 | 30118 ft | 464 kts | 354° |
| 2026-05-05 16:22 | 33.26186 | 121.61318 | 30121 ft | 465 kts | 344° |
| 2026-05-05 16:23 | 33.36190 | 121.56557 | 30110 ft | 466 kts | 337° |
| 2026-05-05 16:23 | 33.45114 | 121.51890 | 30096 ft | 467 kts | 337° |
| 2026-05-05 16:24 | 33.51076 | 121.48804 | 30092 ft | 466 kts | 337° |
| 2026-05-05 16:25 | 33.59970 | 121.44199 | 30097 ft | 465 kts | 337° |
| 2026-05-05 16:25 | 33.68620 | 121.39727 | 30092 ft | 464 kts | 338° |